sensor_id;sensor_type;location;lat;lon;timestamp;P1;durP1;ratioP1;P2;durP2;ratioP2
15171;SDS011;7686;52.184;9.280;2023-02-22T00:01:33;2.80;;;1.60;;
15171;SDS011;7686;52.184;9.280;2023-02-22T00:04:01;2.78;;;1.88;;
15171;SDS011;7686;52.184;9.280;2023-02-22T00:06:29;2.58;;;1.83;;
15171;SDS011;7686;52.184;9.280;2023-02-22T00:08:56;2.08;;;1.52;;
15171;SDS011;7686;52.184;9.280;2023-02-22T00:11:24;2.30;;;1.60;;
15171;SDS011;7686;52.184;9.280;2023-02-22T00:13:51;2.83;;;1.60;;
15171;SDS011;7686;52.184;9.280;2023-02-22T00:16:22;3.33;;;1.83;;
15171;SDS011;7686;52.184;9.280;2023-02-22T00:18:50;2.47;;;1.70;;
15171;SDS011;7686;52.184;9.280;2023-02-22T00:21:17;2.50;;;1.60;;
15171;SDS011;7686;52.184;9.280;2023-02-22T00:23:45;2.45;;;1.67;;
15171;SDS011;7686;52.184;9.280;2023-02-22T00:26:14;2.17;;;1.70;;
15171;SDS011;7686;52.184;9.280;2023-02-22T00:28:49;2.60;;;1.70;;
15171;SDS011;7686;52.184;9.280;2023-02-22T00:31:17;2.03;;;1.55;;
15171;SDS011;7686;52.184;9.280;2023-02-22T00:33:45;3.13;;;1.88;;
15171;SDS011;7686;52.184;9.280;2023-02-22T00:36:12;2.33;;;1.52;;
15171;SDS011;7686;52.184;9.280;2023-02-22T00:38:39;2.53;;;1.80;;
15171;SDS011;7686;52.184;9.280;2023-02-22T00:41:07;3.25;;;1.75;;
15171;SDS011;7686;52.184;9.280;2023-02-22T00:43:34;2.42;;;1.60;;
15171;SDS011;7686;52.184;9.280;2023-02-22T00:46:01;2.22;;;1.70;;
15171;SDS011;7686;52.184;9.280;2023-02-22T00:48:28;2.60;;;1.70;;
15171;SDS011;7686;52.184;9.280;2023-02-22T00:50:55;2.90;;;1.70;;
15171;SDS011;7686;52.184;9.280;2023-02-22T00:53:22;2.58;;;1.70;;
15171;SDS011;7686;52.184;9.280;2023-02-22T00:55:50;2.38;;;1.70;;
15171;SDS011;7686;52.184;9.280;2023-02-22T00:58:17;2.63;;;1.60;;
15171;SDS011;7686;52.184;9.280;2023-02-22T01:00:45;3.35;;;1.90;;
15171;SDS011;7686;52.184;9.280;2023-02-22T01:03:13;2.67;;;1.58;;
15171;SDS011;7686;52.184;9.280;2023-02-22T01:05:42;2.25;;;1.50;;
15171;SDS011;7686;52.184;9.280;2023-02-22T01:08:10;2.25;;;1.52;;
15171;SDS011;7686;52.184;9.280;2023-02-22T01:10:38;2.17;;;1.48;;
15171;SDS011;7686;52.184;9.280;2023-02-22T01:13:06;2.38;;;1.60;;
15171;SDS011;7686;52.184;9.280;2023-02-22T01:15:35;2.42;;;1.65;;
15171;SDS011;7686;52.184;9.280;2023-02-22T01:18:03;2.15;;;1.55;;
15171;SDS011;7686;52.184;9.280;2023-02-22T01:20:30;1.70;;;1.40;;
15171;SDS011;7686;52.184;9.280;2023-02-22T01:22:58;2.70;;;1.83;;
15171;SDS011;7686;52.184;9.280;2023-02-22T01:25:27;2.00;;;1.38;;
15171;SDS011;7686;52.184;9.280;2023-02-22T01:27:56;2.15;;;1.55;;
15171;SDS011;7686;52.184;9.280;2023-02-22T01:30:25;2.30;;;1.58;;
15171;SDS011;7686;52.184;9.280;2023-02-22T01:32:54;2.17;;;1.40;;
15171;SDS011;7686;52.184;9.280;2023-02-22T01:35:23;2.30;;;1.50;;
15171;SDS011;7686;52.184;9.280;2023-02-22T01:37:54;2.55;;;1.60;;
15171;SDS011;7686;52.184;9.280;2023-02-22T01:40:27;2.50;;;1.60;;
15171;SDS011;7686;52.184;9.280;2023-02-22T01:43:05;2.10;;;1.60;;
15171;SDS011;7686;52.184;9.280;2023-02-22T01:48:24;2.05;;;1.50;;
15171;SDS011;7686;52.184;9.280;2023-02-22T01:50:56;2.45;;;1.63;;
15171;SDS011;7686;52.184;9.280;2023-02-22T01:53:29;2.65;;;1.55;;
15171;SDS011;7686;52.184;9.280;2023-02-22T01:56:00;2.33;;;1.60;;
15171;SDS011;7686;52.184;9.280;2023-02-22T01:58:29;2.17;;;1.48;;
15171;SDS011;7686;52.184;9.280;2023-02-22T02:00:58;2.88;;;1.80;;
15171;SDS011;7686;52.184;9.280;2023-02-22T02:03:30;2.50;;;1.65;;
15171;SDS011;7686;52.184;9.280;2023-02-22T02:06:01;2.40;;;1.50;;
15171;SDS011;7686;52.184;9.280;2023-02-22T02:11:04;1.98;;;1.40;;
15171;SDS011;7686;52.184;9.280;2023-02-22T02:13:34;2.50;;;1.67;;
15171;SDS011;7686;52.184;9.280;2023-02-22T02:16:01;2.53;;;1.60;;
15171;SDS011;7686;52.184;9.280;2023-02-22T02:18:28;2.63;;;1.70;;
15171;SDS011;7686;52.184;9.280;2023-02-22T02:29:53;1.88;;;1.23;;
15171;SDS011;7686;52.184;9.280;2023-02-22T02:35:25;2.45;;;1.60;;
15171;SDS011;7686;52.184;9.280;2023-02-22T02:41:08;2.25;;;1.45;;
15171;SDS011;7686;52.184;9.280;2023-02-22T02:46:53;1.85;;;1.35;;
15171;SDS011;7686;52.184;9.280;2023-02-22T02:49:29;2.40;;;1.48;;
15171;SDS011;7686;52.184;9.280;2023-02-22T02:52:02;1.75;;;1.40;;
15171;SDS011;7686;52.184;9.280;2023-02-22T02:54:29;2.30;;;1.50;;
15171;SDS011;7686;52.184;9.280;2023-02-22T02:56:58;2.08;;;1.40;;
15171;SDS011;7686;52.184;9.280;2023-02-22T02:59:28;1.83;;;1.40;;
15171;SDS011;7686;52.184;9.280;2023-02-22T03:07:24;2.10;;;1.50;;
15171;SDS011;7686;52.184;9.280;2023-02-22T03:13:18;1.23;;;1.13;;
15171;SDS011;7686;52.184;9.280;2023-02-22T03:19:01;2.67;;;1.40;;
15171;SDS011;7686;52.184;9.280;2023-02-22T03:29:35;1.52;;;1.27;;
15171;SDS011;7686;52.184;9.280;2023-02-22T03:32:07;1.80;;;1.35;;
15171;SDS011;7686;52.184;9.280;2023-02-22T03:34:39;2.28;;;1.50;;
15171;SDS011;7686;52.184;9.280;2023-02-22T03:37:19;2.00;;;1.48;;
15171;SDS011;7686;52.184;9.280;2023-02-22T03:39:50;1.58;;;1.23;;
15171;SDS011;7686;52.184;9.280;2023-02-22T03:42:29;2.25;;;1.50;;
15171;SDS011;7686;52.184;9.280;2023-02-22T03:44:59;1.42;;;1.17;;
15171;SDS011;7686;52.184;9.280;2023-02-22T03:47:31;1.73;;;1.33;;
15171;SDS011;7686;52.184;9.280;2023-02-22T03:50:08;2.35;;;1.42;;
15171;SDS011;7686;52.184;9.280;2023-02-22T03:52:55;1.35;;;1.17;;
15171;SDS011;7686;52.184;9.280;2023-02-22T03:55:26;2.28;;;1.42;;
15171;SDS011;7686;52.184;9.280;2023-02-22T03:57:55;1.42;;;1.27;;
15171;SDS011;7686;52.184;9.280;2023-02-22T04:00:26;1.80;;;1.40;;
15171;SDS011;7686;52.184;9.280;2023-02-22T04:02:54;1.70;;;1.30;;
15171;SDS011;7686;52.184;9.280;2023-02-22T04:05:21;2.05;;;1.40;;
15171;SDS011;7686;52.184;9.280;2023-02-22T04:07:53;1.85;;;1.30;;
15171;SDS011;7686;52.184;9.280;2023-02-22T04:10:21;1.80;;;1.33;;
15171;SDS011;7686;52.184;9.280;2023-02-22T04:12:49;1.58;;;1.25;;
15171;SDS011;7686;52.184;9.280;2023-02-22T04:15:17;1.60;;;1.20;;
15171;SDS011;7686;52.184;9.280;2023-02-22T04:17:46;1.40;;;1.20;;
15171;SDS011;7686;52.184;9.280;2023-02-22T04:20:13;1.77;;;1.27;;
15171;SDS011;7686;52.184;9.280;2023-02-22T04:22:40;1.53;;;1.30;;
15171;SDS011;7686;52.184;9.280;2023-02-22T04:25:07;1.58;;;1.20;;
15171;SDS011;7686;52.184;9.280;2023-02-22T04:27:33;1.23;;;1.02;;
15171;SDS011;7686;52.184;9.280;2023-02-22T04:30:00;1.42;;;1.08;;
15171;SDS011;7686;52.184;9.280;2023-02-22T04:32:26;1.67;;;1.35;;
15171;SDS011;7686;52.184;9.280;2023-02-22T04:34:53;2.05;;;1.35;;
15171;SDS011;7686;52.184;9.280;2023-02-22T04:37:20;1.50;;;1.17;;
15171;SDS011;7686;52.184;9.280;2023-02-22T04:39:46;1.98;;;1.35;;
15171;SDS011;7686;52.184;9.280;2023-02-22T04:42:13;1.70;;;1.40;;
15171;SDS011;7686;52.184;9.280;2023-02-22T04:44:40;1.40;;;1.30;;
15171;SDS011;7686;52.184;9.280;2023-02-22T04:47:06;1.70;;;1.20;;
15171;SDS011;7686;52.184;9.280;2023-02-22T04:49:33;1.98;;;1.30;;
15171;SDS011;7686;52.184;9.280;2023-02-22T04:51:59;1.10;;;1.00;;
15171;SDS011;7686;52.184;9.280;2023-02-22T04:54:26;1.58;;;1.20;;
15171;SDS011;7686;52.184;9.280;2023-02-22T04:56:53;1.60;;;1.13;;
15171;SDS011;7686;52.184;9.280;2023-02-22T04:59:19;2.10;;;1.33;;
15171;SDS011;7686;52.184;9.280;2023-02-22T05:01:46;1.33;;;1.10;;
15171;SDS011;7686;52.184;9.280;2023-02-22T05:04:13;1.17;;;1.02;;
15171;SDS011;7686;52.184;9.280;2023-02-22T05:06:40;1.58;;;1.15;;
15171;SDS011;7686;52.184;9.280;2023-02-22T05:09:06;1.25;;;1.08;;
15171;SDS011;7686;52.184;9.280;2023-02-22T05:11:33;1.80;;;1.20;;
15171;SDS011;7686;52.184;9.280;2023-02-22T05:14:00;1.30;;;1.10;;
15171;SDS011;7686;52.184;9.280;2023-02-22T05:16:26;1.20;;;1.10;;
15171;SDS011;7686;52.184;9.280;2023-02-22T05:18:53;1.48;;;1.10;;
15171;SDS011;7686;52.184;9.280;2023-02-22T05:21:19;1.60;;;1.13;;
15171;SDS011;7686;52.184;9.280;2023-02-22T05:23:46;2.20;;;1.20;;
15171;SDS011;7686;52.184;9.280;2023-02-22T05:26:13;1.63;;;1.20;;
15171;SDS011;7686;52.184;9.280;2023-02-22T05:28:39;1.80;;;1.20;;
15171;SDS011;7686;52.184;9.280;2023-02-22T05:31:06;2.00;;;1.30;;
15171;SDS011;7686;52.184;9.280;2023-02-22T05:33:33;2.85;;;1.20;;
15171;SDS011;7686;52.184;9.280;2023-02-22T05:36:00;1.83;;;1.23;;
15171;SDS011;7686;52.184;9.280;2023-02-22T05:38:27;1.75;;;1.10;;
15171;SDS011;7686;52.184;9.280;2023-02-22T05:40:54;2.10;;;1.30;;
15171;SDS011;7686;52.184;9.280;2023-02-22T05:43:21;1.80;;;1.10;;
15171;SDS011;7686;52.184;9.280;2023-02-22T05:45:48;2.00;;;1.20;;
15171;SDS011;7686;52.184;9.280;2023-02-22T05:48:15;2.28;;;1.20;;
15171;SDS011;7686;52.184;9.280;2023-02-22T05:50:41;1.80;;;1.20;;
15171;SDS011;7686;52.184;9.280;2023-02-22T05:53:09;1.50;;;1.20;;
15171;SDS011;7686;52.184;9.280;2023-02-22T05:55:35;1.75;;;1.20;;
15171;SDS011;7686;52.184;9.280;2023-02-22T05:58:02;1.38;;;1.17;;
15171;SDS011;7686;52.184;9.280;2023-02-22T06:00:30;1.45;;;1.10;;
15171;SDS011;7686;52.184;9.280;2023-02-22T06:03:02;1.25;;;0.98;;
15171;SDS011;7686;52.184;9.280;2023-02-22T06:05:30;2.50;;;1.35;;
15171;SDS011;7686;52.184;9.280;2023-02-22T06:07:58;2.03;;;1.10;;
15171;SDS011;7686;52.184;9.280;2023-02-22T06:10:25;2.08;;;1.20;;
15171;SDS011;7686;52.184;9.280;2023-02-22T06:12:52;2.72;;;1.20;;
15171;SDS011;7686;52.184;9.280;2023-02-22T06:15:20;1.48;;;1.13;;
15171;SDS011;7686;52.184;9.280;2023-02-22T06:17:48;1.42;;;1.00;;
15171;SDS011;7686;52.184;9.280;2023-02-22T06:20:17;1.45;;;1.10;;
15171;SDS011;7686;52.184;9.280;2023-02-22T06:22:46;2.13;;;1.20;;
15171;SDS011;7686;52.184;9.280;2023-02-22T06:25:14;2.50;;;1.17;;
15171;SDS011;7686;52.184;9.280;2023-02-22T06:27:42;2.03;;;1.20;;
15171;SDS011;7686;52.184;9.280;2023-02-22T06:30:09;2.20;;;1.20;;
15171;SDS011;7686;52.184;9.280;2023-02-22T06:32:38;2.47;;;1.20;;
15171;SDS011;7686;52.184;9.280;2023-02-22T06:35:05;2.63;;;1.42;;
15171;SDS011;7686;52.184;9.280;2023-02-22T06:37:32;2.47;;;1.10;;
15171;SDS011;7686;52.184;9.280;2023-02-22T06:39:59;2.15;;;1.20;;
15171;SDS011;7686;52.184;9.280;2023-02-22T06:42:31;3.78;;;1.10;;
15171;SDS011;7686;52.184;9.280;2023-02-22T06:44:58;3.10;;;1.27;;
15171;SDS011;7686;52.184;9.280;2023-02-22T06:47:24;1.40;;;1.00;;
15171;SDS011;7686;52.184;9.280;2023-02-22T06:49:52;2.50;;;1.20;;
15171;SDS011;7686;52.184;9.280;2023-02-22T06:52:19;3.15;;;1.30;;
15171;SDS011;7686;52.184;9.280;2023-02-22T06:54:46;2.53;;;1.20;;
15171;SDS011;7686;52.184;9.280;2023-02-22T06:57:13;1.92;;;1.10;;
15171;SDS011;7686;52.184;9.280;2023-02-22T06:59:40;4.22;;;1.35;;
15171;SDS011;7686;52.184;9.280;2023-02-22T07:02:08;1.98;;;1.20;;
15171;SDS011;7686;52.184;9.280;2023-02-22T07:04:36;2.70;;;1.23;;
15171;SDS011;7686;52.184;9.280;2023-02-22T07:07:03;1.90;;;1.13;;
15171;SDS011;7686;52.184;9.280;2023-02-22T07:09:29;1.40;;;1.10;;
15171;SDS011;7686;52.184;9.280;2023-02-22T07:11:56;3.22;;;1.20;;
15171;SDS011;7686;52.184;9.280;2023-02-22T07:14:23;2.05;;;1.00;;
15171;SDS011;7686;52.184;9.280;2023-02-22T07:16:50;1.48;;;1.00;;
15171;SDS011;7686;52.184;9.280;2023-02-22T07:19:16;3.08;;;1.13;;
15171;SDS011;7686;52.184;9.280;2023-02-22T07:21:43;3.25;;;1.10;;
15171;SDS011;7686;52.184;9.280;2023-02-22T07:24:12;1.85;;;1.05;;
15171;SDS011;7686;52.184;9.280;2023-02-22T07:26:40;1.70;;;1.10;;
15171;SDS011;7686;52.184;9.280;2023-02-22T07:29:07;1.30;;;1.00;;
15171;SDS011;7686;52.184;9.280;2023-02-22T07:31:37;2.00;;;1.00;;
15171;SDS011;7686;52.184;9.280;2023-02-22T07:34:04;1.60;;;1.10;;
15171;SDS011;7686;52.184;9.280;2023-02-22T07:36:30;2.20;;;1.08;;
15171;SDS011;7686;52.184;9.280;2023-02-22T07:38:57;1.65;;;0.90;;
15171;SDS011;7686;52.184;9.280;2023-02-22T07:41:24;1.58;;;1.10;;
15171;SDS011;7686;52.184;9.280;2023-02-22T07:43:51;1.85;;;1.00;;
15171;SDS011;7686;52.184;9.280;2023-02-22T07:46:17;1.35;;;1.10;;
15171;SDS011;7686;52.184;9.280;2023-02-22T07:48:44;2.03;;;1.20;;
15171;SDS011;7686;52.184;9.280;2023-02-22T07:51:13;1.15;;;0.73;;
15171;SDS011;7686;52.184;9.280;2023-02-22T07:53:41;2.95;;;0.90;;
15171;SDS011;7686;52.184;9.280;2023-02-22T07:56:08;1.42;;;0.82;;
15171;SDS011;7686;52.184;9.280;2023-02-22T07:58:35;2.13;;;1.10;;
15171;SDS011;7686;52.184;9.280;2023-02-22T08:01:02;2.00;;;1.08;;
15171;SDS011;7686;52.184;9.280;2023-02-22T08:03:30;2.28;;;1.00;;
15171;SDS011;7686;52.184;9.280;2023-02-22T08:06:01;3.28;;;1.20;;
15171;SDS011;7686;52.184;9.280;2023-02-22T08:08:29;3.70;;;1.10;;
15171;SDS011;7686;52.184;9.280;2023-02-22T08:10:56;1.80;;;1.10;;
15171;SDS011;7686;52.184;9.280;2023-02-22T08:13:23;1.38;;;1.02;;
15171;SDS011;7686;52.184;9.280;2023-02-22T08:15:52;1.08;;;0.85;;
15171;SDS011;7686;52.184;9.280;2023-02-22T08:18:19;1.52;;;0.88;;
15171;SDS011;7686;52.184;9.280;2023-02-22T08:20:50;1.55;;;0.90;;
15171;SDS011;7686;52.184;9.280;2023-02-22T08:23:18;1.38;;;0.95;;
15171;SDS011;7686;52.184;9.280;2023-02-22T08:25:45;2.72;;;1.10;;
15171;SDS011;7686;52.184;9.280;2023-02-22T08:28:13;1.92;;;1.08;;
15171;SDS011;7686;52.184;9.280;2023-02-22T08:30:41;4.20;;;1.02;;
15171;SDS011;7686;52.184;9.280;2023-02-22T08:33:09;4.55;;;1.20;;
15171;SDS011;7686;52.184;9.280;2023-02-22T08:35:39;1.00;;;0.90;;
15171;SDS011;7686;52.184;9.280;2023-02-22T08:38:06;1.60;;;0.95;;
15171;SDS011;7686;52.184;9.280;2023-02-22T08:40:34;3.97;;;2.00;;
15171;SDS011;7686;52.184;9.280;2023-02-22T08:43:02;5.88;;;3.63;;
15171;SDS011;7686;52.184;9.280;2023-02-22T08:45:29;6.15;;;4.45;;
15171;SDS011;7686;52.184;9.280;2023-02-22T08:47:57;7.30;;;5.30;;
15171;SDS011;7686;52.184;9.280;2023-02-22T08:50:26;6.20;;;4.78;;
15171;SDS011;7686;52.184;9.280;2023-02-22T08:52:55;7.30;;;4.85;;
15171;SDS011;7686;52.184;9.280;2023-02-22T08:55:25;4.97;;;3.38;;
15171;SDS011;7686;52.184;9.280;2023-02-22T08:57:55;3.58;;;2.40;;
15171;SDS011;7686;52.184;9.280;2023-02-22T09:00:21;3.65;;;1.98;;
15171;SDS011;7686;52.184;9.280;2023-02-22T09:02:53;4.30;;;1.70;;
15171;SDS011;7686;52.184;9.280;2023-02-22T09:05:20;1.65;;;1.33;;
15171;SDS011;7686;52.184;9.280;2023-02-22T09:07:46;1.85;;;1.30;;
15171;SDS011;7686;52.184;9.280;2023-02-22T09:10:14;2.60;;;1.20;;
15171;SDS011;7686;52.184;9.280;2023-02-22T09:12:52;1.98;;;1.15;;
15171;SDS011;7686;52.184;9.280;2023-02-22T09:15:23;1.98;;;1.30;;
15171;SDS011;7686;52.184;9.280;2023-02-22T09:17:51;2.70;;;1.38;;
15171;SDS011;7686;52.184;9.280;2023-02-22T09:20:18;2.35;;;1.20;;
15171;SDS011;7686;52.184;9.280;2023-02-22T09:22:47;2.38;;;1.30;;
15171;SDS011;7686;52.184;9.280;2023-02-22T09:25:14;3.03;;;1.20;;
15171;SDS011;7686;52.184;9.280;2023-02-22T09:27:43;2.08;;;1.15;;
15171;SDS011;7686;52.184;9.280;2023-02-22T09:30:19;1.67;;;1.25;;
15171;SDS011;7686;52.184;9.280;2023-02-22T09:32:51;1.73;;;1.23;;
15171;SDS011;7686;52.184;9.280;2023-02-22T09:35:23;2.40;;;1.30;;
15171;SDS011;7686;52.184;9.280;2023-02-22T09:37:53;1.85;;;1.10;;
15171;SDS011;7686;52.184;9.280;2023-02-22T09:40:25;1.48;;;1.20;;
15171;SDS011;7686;52.184;9.280;2023-02-22T09:42:58;2.35;;;1.13;;
15171;SDS011;7686;52.184;9.280;2023-02-22T09:48:13;2.42;;;1.27;;
15171;SDS011;7686;52.184;9.280;2023-02-22T09:50:47;2.10;;;1.33;;
15171;SDS011;7686;52.184;9.280;2023-02-22T09:56:10;1.25;;;1.10;;
15171;SDS011;7686;52.184;9.280;2023-02-22T09:58:40;1.60;;;1.17;;
15171;SDS011;7686;52.184;9.280;2023-02-22T10:01:21;1.88;;;1.08;;
15171;SDS011;7686;52.184;9.280;2023-02-22T10:07:28;2.50;;;1.15;;
15171;SDS011;7686;52.184;9.280;2023-02-22T10:09:43;1.08;;;0.98;;
15171;SDS011;7686;52.184;9.280;2023-02-22T10:12:17;1.67;;;1.00;;
15171;SDS011;7686;52.184;9.280;2023-02-22T10:15:06;1.80;;;1.10;;
15171;SDS011;7686;52.184;9.280;2023-02-22T10:17:58;2.67;;;1.13;;
15171;SDS011;7686;52.184;9.280;2023-02-22T10:28:52;1.63;;;1.05;;
15171;SDS011;7686;52.184;9.280;2023-02-22T10:31:27;1.27;;;1.00;;
15171;SDS011;7686;52.184;9.280;2023-02-22T10:33:59;1.10;;;1.00;;
15171;SDS011;7686;52.184;9.280;2023-02-22T10:36:28;0.98;;;0.95;;
15171;SDS011;7686;52.184;9.280;2023-02-22T10:38:59;1.63;;;1.20;;
15171;SDS011;7686;52.184;9.280;2023-02-22T10:41:48;1.77;;;1.17;;
15171;SDS011;7686;52.184;9.280;2023-02-22T10:44:18;1.88;;;1.20;;
15171;SDS011;7686;52.184;9.280;2023-02-22T10:46:45;3.17;;;1.10;;
15171;SDS011;7686;52.184;9.280;2023-02-22T10:49:14;1.15;;;1.00;;
15171;SDS011;7686;52.184;9.280;2023-02-22T10:51:59;1.40;;;1.10;;
15171;SDS011;7686;52.184;9.280;2023-02-22T10:54:33;1.42;;;1.00;;
15171;SDS011;7686;52.184;9.280;2023-02-22T10:57:04;1.40;;;0.95;;
15171;SDS011;7686;52.184;9.280;2023-02-22T10:59:32;12.45;;;1.42;;
15171;SDS011;7686;52.184;9.280;2023-02-22T11:02:06;1.63;;;1.10;;
15171;SDS011;7686;52.184;9.280;2023-02-22T11:04:45;2.25;;;0.98;;
15171;SDS011;7686;52.184;9.280;2023-02-22T11:07:19;1.40;;;1.02;;
15171;SDS011;7686;52.184;9.280;2023-02-22T11:09:58;1.73;;;1.10;;
15171;SDS011;7686;52.184;9.280;2023-02-22T11:12:31;1.45;;;1.00;;
15171;SDS011;7686;52.184;9.280;2023-02-22T11:17:45;2.65;;;1.00;;
15171;SDS011;7686;52.184;9.280;2023-02-22T11:20:23;1.02;;;0.93;;
15171;SDS011;7686;52.184;9.280;2023-02-22T11:22:53;1.25;;;1.00;;
15171;SDS011;7686;52.184;9.280;2023-02-22T11:25:26;5.00;;;3.28;;
15171;SDS011;7686;52.184;9.280;2023-02-22T11:28:16;4.97;;;4.05;;
15171;SDS011;7686;52.184;9.280;2023-02-22T11:30:56;5.45;;;3.88;;
15171;SDS011;7686;52.184;9.280;2023-02-22T11:33:33;8.02;;;5.30;;
15171;SDS011;7686;52.184;9.280;2023-02-22T11:36:01;6.32;;;4.85;;
15171;SDS011;7686;52.184;9.280;2023-02-22T11:38:34;4.32;;;3.10;;
15171;SDS011;7686;52.184;9.280;2023-02-22T11:43:50;3.13;;;2.47;;
15171;SDS011;7686;52.184;9.280;2023-02-22T11:48:46;3.25;;;1.83;;
15171;SDS011;7686;52.184;9.280;2023-02-22T11:51:25;1.98;;;1.48;;
15171;SDS011;7686;52.184;9.280;2023-02-22T12:02:58;3.15;;;1.50;;
15171;SDS011;7686;52.184;9.280;2023-02-22T12:08:07;1.65;;;1.10;;
15171;SDS011;7686;52.184;9.280;2023-02-22T12:13:35;2.83;;;1.05;;
15171;SDS011;7686;52.184;9.280;2023-02-22T12:21:54;1.13;;;0.98;;
15171;SDS011;7686;52.184;9.280;2023-02-22T12:24:35;1.15;;;1.00;;
15171;SDS011;7686;52.184;9.280;2023-02-22T12:27:13;3.42;;;1.25;;
15171;SDS011;7686;52.184;9.280;2023-02-22T12:30:17;1.10;;;1.00;;
15171;SDS011;7686;52.184;9.280;2023-02-22T12:32:55;2.25;;;1.20;;
15171;SDS011;7686;52.184;9.280;2023-02-22T12:35:32;1.48;;;1.23;;
15171;SDS011;7686;52.184;9.280;2023-02-22T12:38:08;1.30;;;1.10;;
15171;SDS011;7686;52.184;9.280;2023-02-22T12:40:53;5.93;;;1.05;;
15171;SDS011;7686;52.184;9.280;2023-02-22T12:43:31;1.50;;;1.05;;
15171;SDS011;7686;52.184;9.280;2023-02-22T12:46:15;1.10;;;1.00;;
15171;SDS011;7686;52.184;9.280;2023-02-22T12:49:02;1.25;;;1.00;;
15171;SDS011;7686;52.184;9.280;2023-02-22T12:54:44;2.05;;;0.90;;
15171;SDS011;7686;52.184;9.280;2023-02-22T12:57:35;1.30;;;1.00;;
15171;SDS011;7686;52.184;9.280;2023-02-22T13:02:55;1.45;;;1.10;;
15171;SDS011;7686;52.184;9.280;2023-02-22T13:05:29;2.70;;;1.15;;
15171;SDS011;7686;52.184;9.280;2023-02-22T13:11:00;1.40;;;1.05;;
15171;SDS011;7686;52.184;9.280;2023-02-22T13:13:44;1.10;;;1.00;;
15171;SDS011;7686;52.184;9.280;2023-02-22T13:16:46;1.30;;;1.02;;
15171;SDS011;7686;52.184;9.280;2023-02-22T13:19:25;1.48;;;1.13;;
15171;SDS011;7686;52.184;9.280;2023-02-22T13:22:15;1.15;;;0.80;;
15171;SDS011;7686;52.184;9.280;2023-02-22T13:25:08;1.38;;;1.05;;
15171;SDS011;7686;52.184;9.280;2023-02-22T13:30:16;2.20;;;1.20;;
15171;SDS011;7686;52.184;9.280;2023-02-22T13:32:59;1.95;;;1.00;;
15171;SDS011;7686;52.184;9.280;2023-02-22T13:35:42;1.05;;;0.95;;
15171;SDS011;7686;52.184;9.280;2023-02-22T13:52:20;1.85;;;1.10;;
15171;SDS011;7686;52.184;9.280;2023-02-22T13:54:55;1.10;;;1.00;;
15171;SDS011;7686;52.184;9.280;2023-02-22T13:57:42;0.80;;;0.80;;
15171;SDS011;7686;52.184;9.280;2023-02-22T14:16:19;0.82;;;0.82;;
15171;SDS011;7686;52.184;9.280;2023-02-22T14:18:59;1.15;;;0.90;;
15171;SDS011;7686;52.184;9.280;2023-02-22T14:21:32;0.90;;;0.90;;
15171;SDS011;7686;52.184;9.280;2023-02-22T14:24:09;1.08;;;1.00;;
15171;SDS011;7686;52.184;9.280;2023-02-22T14:26:40;0.85;;;0.85;;
15171;SDS011;7686;52.184;9.280;2023-02-22T14:29:20;1.45;;;1.10;;
15171;SDS011;7686;52.184;9.280;2023-02-22T14:34:37;0.93;;;0.90;;
15171;SDS011;7686;52.184;9.280;2023-02-22T14:37:12;1.20;;;0.98;;
15171;SDS011;7686;52.184;9.280;2023-02-22T14:39:43;1.13;;;0.90;;
15171;SDS011;7686;52.184;9.280;2023-02-22T14:43:23;0.90;;;0.90;;
15171;SDS011;7686;52.184;9.280;2023-02-22T14:45:29;2.30;;;0.90;;
15171;SDS011;7686;52.184;9.280;2023-02-22T14:48:01;1.17;;;0.95;;
15171;SDS011;7686;52.184;9.280;2023-02-22T14:53:13;2.97;;;0.95;;
15171;SDS011;7686;52.184;9.280;2023-02-22T14:55:56;1.25;;;0.90;;
15171;SDS011;7686;52.184;9.280;2023-02-22T14:58:42;3.85;;;0.95;;
15171;SDS011;7686;52.184;9.280;2023-02-22T15:01:21;2.65;;;1.08;;
15171;SDS011;7686;52.184;9.280;2023-02-22T15:04:21;0.95;;;0.80;;
15171;SDS011;7686;52.184;9.280;2023-02-22T15:06:51;1.98;;;0.95;;
15171;SDS011;7686;52.184;9.280;2023-02-22T15:14:27;2.03;;;0.90;;
15171;SDS011;7686;52.184;9.280;2023-02-22T15:16:58;1.33;;;0.90;;
15171;SDS011;7686;52.184;9.280;2023-02-22T15:19:27;1.20;;;0.80;;
15171;SDS011;7686;52.184;9.280;2023-02-22T15:21:56;2.35;;;0.93;;
15171;SDS011;7686;52.184;9.280;2023-02-22T15:24:28;0.80;;;0.80;;
15171;SDS011;7686;52.184;9.280;2023-02-22T15:27:05;1.58;;;1.02;;
15171;SDS011;7686;52.184;9.280;2023-02-22T15:29:38;2.08;;;0.93;;
15171;SDS011;7686;52.184;9.280;2023-02-22T15:32:19;1.00;;;0.73;;
15171;SDS011;7686;52.184;9.280;2023-02-22T15:37:56;0.95;;;0.90;;
15171;SDS011;7686;52.184;9.280;2023-02-22T15:40:25;1.88;;;0.90;;
15171;SDS011;7686;52.184;9.280;2023-02-22T15:42:59;1.25;;;0.90;;
15171;SDS011;7686;52.184;9.280;2023-02-22T15:45:27;1.17;;;0.80;;
15171;SDS011;7686;52.184;9.280;2023-02-22T15:47:57;1.27;;;0.95;;
15171;SDS011;7686;52.184;9.280;2023-02-22T15:50:28;2.25;;;0.98;;
15171;SDS011;7686;52.184;9.280;2023-02-22T15:55:34;0.95;;;0.90;;
15171;SDS011;7686;52.184;9.280;2023-02-22T15:58:10;1.88;;;0.93;;
15171;SDS011;7686;52.184;9.280;2023-02-22T16:00:42;0.90;;;0.90;;
15171;SDS011;7686;52.184;9.280;2023-02-22T16:03:15;1.13;;;0.90;;
15171;SDS011;7686;52.184;9.280;2023-02-22T16:05:51;0.70;;;0.70;;
15171;SDS011;7686;52.184;9.280;2023-02-22T16:08:23;1.75;;;0.80;;
15171;SDS011;7686;52.184;9.280;2023-02-22T16:11:22;1.45;;;0.85;;
15171;SDS011;7686;52.184;9.280;2023-02-22T16:14:02;0.70;;;0.70;;
15171;SDS011;7686;52.184;9.280;2023-02-22T16:16:48;0.75;;;0.75;;
15171;SDS011;7686;52.184;9.280;2023-02-22T16:22:03;0.95;;;0.77;;
15171;SDS011;7686;52.184;9.280;2023-02-22T16:24:38;1.23;;;0.90;;
15171;SDS011;7686;52.184;9.280;2023-02-22T16:29:39;0.93;;;0.80;;
15171;SDS011;7686;52.184;9.280;2023-02-22T16:32:06;0.75;;;0.70;;
15171;SDS011;7686;52.184;9.280;2023-02-22T16:34:33;1.40;;;0.88;;
15171;SDS011;7686;52.184;9.280;2023-02-22T16:37:00;0.70;;;0.68;;
15171;SDS011;7686;52.184;9.280;2023-02-22T16:39:28;1.08;;;0.80;;
15171;SDS011;7686;52.184;9.280;2023-02-22T16:41:57;1.33;;;0.80;;
15171;SDS011;7686;52.184;9.280;2023-02-22T16:44:26;0.82;;;0.63;;
15171;SDS011;7686;52.184;9.280;2023-02-22T16:46:54;1.65;;;1.00;;
15171;SDS011;7686;52.184;9.280;2023-02-22T16:49:22;0.70;;;0.70;;
15171;SDS011;7686;52.184;9.280;2023-02-22T16:51:54;0.77;;;0.77;;
15171;SDS011;7686;52.184;9.280;2023-02-22T16:54:28;0.75;;;0.70;;
15171;SDS011;7686;52.184;9.280;2023-02-22T16:56:59;1.25;;;0.77;;
15171;SDS011;7686;52.184;9.280;2023-02-22T16:59:27;0.65;;;0.65;;
15171;SDS011;7686;52.184;9.280;2023-02-22T17:01:57;1.10;;;1.00;;
15171;SDS011;7686;52.184;9.280;2023-02-22T17:04:24;1.13;;;0.80;;
15171;SDS011;7686;52.184;9.280;2023-02-22T17:06:53;1.15;;;0.73;;
15171;SDS011;7686;52.184;9.280;2023-02-22T17:09:20;1.58;;;0.80;;
15171;SDS011;7686;52.184;9.280;2023-02-22T17:11:48;0.70;;;0.70;;
15171;SDS011;7686;52.184;9.280;2023-02-22T17:14:17;0.68;;;0.68;;
15171;SDS011;7686;52.184;9.280;2023-02-22T17:16:51;0.98;;;0.80;;
15171;SDS011;7686;52.184;9.280;2023-02-22T17:19:20;0.80;;;0.80;;
15171;SDS011;7686;52.184;9.280;2023-02-22T17:21:50;0.90;;;0.77;;
15171;SDS011;7686;52.184;9.280;2023-02-22T17:24:19;1.27;;;0.90;;
15171;SDS011;7686;52.184;9.280;2023-02-22T17:26:48;0.70;;;0.70;;
15171;SDS011;7686;52.184;9.280;2023-02-22T17:29:15;1.08;;;0.70;;
15171;SDS011;7686;52.184;9.280;2023-02-22T17:31:42;1.00;;;0.80;;
15171;SDS011;7686;52.184;9.280;2023-02-22T17:34:09;0.88;;;0.73;;
15171;SDS011;7686;52.184;9.280;2023-02-22T17:36:36;0.95;;;0.73;;
15171;SDS011;7686;52.184;9.280;2023-02-22T17:39:03;1.30;;;0.73;;
15171;SDS011;7686;52.184;9.280;2023-02-22T17:41:30;1.20;;;0.80;;
15171;SDS011;7686;52.184;9.280;2023-02-22T17:43:57;0.95;;;0.80;;
15171;SDS011;7686;52.184;9.280;2023-02-22T17:46:24;0.80;;;0.70;;
15171;SDS011;7686;52.184;9.280;2023-02-22T17:48:51;0.70;;;0.70;;
15171;SDS011;7686;52.184;9.280;2023-02-22T17:51:24;1.10;;;0.80;;
15171;SDS011;7686;52.184;9.280;2023-02-22T17:53:51;0.65;;;0.65;;
15171;SDS011;7686;52.184;9.280;2023-02-22T17:56:18;1.58;;;0.80;;